Time;durP1;ratioP1;P1;durP2;ratioP2;P2;SDS_P1;SDS_P2;PMS_P1;PMS_P2;Temp;Humidity;BMP_temperature;BMP_pressure;BME280_temperature;BME280_humidity;BME280_pressure;Samples;Min_cycle;Max_cycle;Signal;HPM_P1;HPM_P2
2024/03/15 00:00:41;;;;;;;1.13;0.60;;;;;;;;;;5070928;28;20033;-60
2024/03/15 00:03:06;;;;;;;2.97;0.60;;;;;;;;;;5070360;28;20043;-60
2024/03/15 00:05:32;;;;;;;2.28;0.75;;;;;;;;;;5070485;28;20067;-60
2024/03/15 00:07:57;;;;;;;1.50;0.82;;;;;;;;;;5070251;28;20094;-57
2024/03/15 00:10:22;;;;;;;3.05;0.77;;;;;;;;;;5071012;28;20028;-58
2024/03/15 00:12:49;;;;;;;1.83;0.70;;;;;;;;;;5070678;28;20064;-60
2024/03/15 00:15:15;;;;;;;2.53;0.77;;;;;;;;;;5070492;28;20375;-54
2024/03/15 00:17:42;;;;;;;2.75;0.70;;;;;;;;;;5070595;28;20033;-56
2024/03/15 00:20:07;;;;;;;2.80;0.80;;;;;;;;;;5070254;28;20048;-56
2024/03/15 00:22:34;;;;;;;2.15;0.77;;;;;;;;;;5070809;28;20044;-55
2024/03/15 00:25:00;;;;;;;1.92;0.70;;;;;;;;;;5070799;28;20024;-50
2024/03/15 00:27:25;;;;;;;1.25;0.65;;;;;;;;;;5070431;28;20479;-50
2024/03/15 00:29:50;;;;;;;1.02;0.50;;;;;;;;;;5070324;28;20119;-53
2024/03/15 00:32:16;;;;;;;1.92;0.80;;;;;;;;;;5070548;28;20063;-51
2024/03/15 00:34:41;;;;;;;2.00;0.75;;;;;;;;;;5069545;28;20043;-55
2024/03/15 00:37:08;;;;;;;2.03;0.90;;;;;;;;;;5070200;28;20044;-54
2024/03/15 00:39:34;;;;;;;1.83;0.60;;;;;;;;;;5070497;28;20036;-54
2024/03/15 00:41:59;;;;;;;2.03;0.90;;;;;;;;;;5070511;28;20123;-53
2024/03/15 00:44:24;;;;;;;1.60;0.75;;;;;;;;;;5070000;28;20067;-53
2024/03/15 00:46:50;;;;;;;2.20;0.70;;;;;;;;;;5070136;28;20045;-55
2024/03/15 00:49:16;;;;;;;1.83;0.70;;;;;;;;;;5070082;28;20040;-53
2024/03/15 00:51:41;;;;;;;2.38;0.90;;;;;;;;;;5069748;28;20040;-55
2024/03/15 00:54:06;;;;;;;3.70;0.85;;;;;;;;;;5070130;28;20037;-54
2024/03/15 00:56:32;;;;;;;3.05;0.90;;;;;;;;;;5069360;28;20379;-54
2024/03/15 00:58:57;;;;;;;2.47;0.82;;;;;;;;;;5069613;28;20388;-54
2024/03/15 01:01:22;;;;;;;3.80;0.75;;;;;;;;;;5070315;28;20369;-58
2024/03/15 01:03:48;;;;;;;3.45;0.88;;;;;;;;;;5069758;28;20380;-59
2024/03/15 01:06:14;;;;;;;1.92;0.70;;;;;;;;;;5069595;28;20114;-60
2024/03/15 01:08:40;;;;;;;1.88;0.80;;;;;;;;;;5070043;28;20033;-59
2024/03/15 01:11:05;;;;;;;1.80;0.80;;;;;;;;;;5070281;28;20024;-58
2024/03/15 01:13:30;;;;;;;1.88;0.73;;;;;;;;;;5069915;28;20044;-55
2024/03/15 01:15:56;;;;;;;2.35;0.90;;;;;;;;;;5069780;28;20037;-53
2024/03/15 01:18:21;;;;;;;2.67;0.82;;;;;;;;;;5069986;28;20517;-55
2024/03/15 01:20:46;;;;;;;2.08;0.80;;;;;;;;;;5069668;28;20438;-54
2024/03/15 01:23:12;;;;;;;2.58;0.93;;;;;;;;;;5067246;28;20040;-54
2024/03/15 01:25:39;;;;;;;2.60;0.88;;;;;;;;;;5064241;28;20039;-54
2024/03/15 01:28:06;;;;;;;3.35;1.00;;;;;;;;;;5069864;28;20033;-54
2024/03/15 01:30:32;;;;;;;2.95;1.02;;;;;;;;;;5064988;28;20064;-55
2024/03/15 01:32:57;;;;;;;5.15;1.00;;;;;;;;;;5069799;28;20071;-55
2024/03/15 01:35:23;;;;;;;2.15;0.90;;;;;;;;;;5069933;28;20452;-53
2024/03/15 01:37:49;;;;;;;2.60;0.80;;;;;;;;;;5065676;28;20118;-58
2024/03/15 01:40:15;;;;;;;1.80;0.68;;;;;;;;;;5069564;28;20036;-59
2024/03/15 01:42:41;;;;;;;5.22;1.05;;;;;;;;;;5069257;28;20040;-59
2024/03/15 01:45:09;;;;;;;4.03;1.15;;;;;;;;;;5069092;28;20040;-58
2024/03/15 01:47:36;;;;;;;1.83;0.77;;;;;;;;;;5069287;28;20040;-59
2024/03/15 01:50:02;;;;;;;3.13;0.70;;;;;;;;;;5051434;28;20097;-59
2024/03/15 01:52:30;;;;;;;2.72;0.73;;;;;;;;;;5069326;28;20032;-56
2024/03/15 01:54:56;;;;;;;2.30;0.88;;;;;;;;;;5069559;28;20028;-52
2024/03/15 01:57:23;;;;;;;2.80;0.90;;;;;;;;;;5069902;28;20047;-54
2024/03/15 01:59:48;;;;;;;4.63;1.10;;;;;;;;;;5069126;28;20518;-57
2024/03/15 02:02:13;;;;;;;2.97;1.20;;;;;;;;;;5068977;28;20032;-55
2024/03/15 02:04:46;;;;;;;1.83;0.80;;;;;;;;;;5069138;28;20047;-56
2024/03/15 02:07:11;;;;;;;3.75;1.00;;;;;;;;;;5072521;28;20036;-53
2024/03/15 02:09:38;;;;;;;2.63;0.82;;;;;;;;;;5072484;28;20044;-53
2024/03/15 02:12:04;;;;;;;1.92;0.75;;;;;;;;;;5073361;28;20041;-52
2024/03/15 02:14:29;;;;;;;3.72;0.80;;;;;;;;;;5072932;28;20365;-55
2024/03/15 02:16:54;;;;;;;2.97;0.75;;;;;;;;;;5072688;28;20271;-54
2024/03/15 02:19:19;;;;;;;1.85;0.88;;;;;;;;;;5072527;28;20573;-53
2024/03/15 02:21:48;;;;;;;3.85;1.00;;;;;;;;;;5072907;28;20059;-56
2024/03/15 02:24:15;;;;;;;2.15;0.73;;;;;;;;;;5071958;28;20480;-54
2024/03/15 02:26:41;;;;;;;3.75;1.00;;;;;;;;;;5072626;28;20502;-55
2024/03/15 02:29:08;;;;;;;1.92;0.90;;;;;;;;;;5072879;28;20127;-50
2024/03/15 02:31:33;;;;;;;2.75;0.98;;;;;;;;;;5072781;28;20036;-55
2024/03/15 02:34:00;;;;;;;2.42;0.88;;;;;;;;;;5072080;28;20041;-54
2024/03/15 02:36:25;;;;;;;2.20;0.77;;;;;;;;;;5072833;28;20028;-56
2024/03/15 02:38:51;;;;;;;1.67;0.80;;;;;;;;;;5072595;28;20105;-56
2024/03/15 02:41:16;;;;;;;3.30;1.00;;;;;;;;;;5072479;28;20028;-55
2024/03/15 02:43:42;;;;;;;2.65;0.75;;;;;;;;;;5072404;28;20461;-57
2024/03/15 02:46:07;;;;;;;4.43;0.70;;;;;;;;;;5054797;28;20035;-56
2024/03/15 02:48:41;;;;;;;2.75;0.80;;;;;;;;;;5071733;28;20064;-53
2024/03/15 02:51:07;;;;;;;3.65;0.70;;;;;;;;;;5072701;28;20035;-55
2024/03/15 02:53:32;;;;;;;2.88;0.70;;;;;;;;;;5071947;28;20041;-56
2024/03/15 02:56:01;;;;;;;2.15;0.80;;;;;;;;;;5072039;28;20052;-54
2024/03/15 02:58:27;;;;;;;1.30;0.55;;;;;;;;;;5071636;28;20033;-53
2024/03/15 03:00:52;;;;;;;1.50;0.55;;;;;;;;;;5072124;28;20491;-55
2024/03/15 03:03:18;;;;;;;3.47;0.57;;;;;;;;;;5071492;28;20033;-54
2024/03/15 03:05:43;;;;;;;2.25;0.80;;;;;;;;;;5071919;28;20047;-56
2024/03/15 03:08:09;;;;;;;1.48;0.60;;;;;;;;;;5072295;28;20040;-55
2024/03/15 03:10:34;;;;;;;2.38;1.00;;;;;;;;;;5071858;28;20089;-57
2024/03/15 03:13:02;;;;;;;2.42;0.70;;;;;;;;;;5071647;28;20051;-51
2024/03/15 03:15:28;;;;;;;1.67;0.60;;;;;;;;;;5071328;28;20498;-52
2024/03/15 03:17:53;;;;;;;2.70;0.82;;;;;;;;;;5071479;28;20112;-53
2024/03/15 03:20:19;;;;;;;1.38;0.68;;;;;;;;;;5071119;28;20484;-55
2024/03/15 03:22:45;;;;;;;1.55;0.70;;;;;;;;;;5071722;28;20124;-54
2024/03/15 03:25:10;;;;;;;1.25;0.60;;;;;;;;;;5070712;28;20072;-53
2024/03/15 03:27:36;;;;;;;1.75;0.65;;;;;;;;;;5071549;28;20059;-52
2024/03/15 03:30:02;;;;;;;2.22;0.75;;;;;;;;;;5071541;28;20056;-54
2024/03/15 03:32:27;;;;;;;2.72;0.80;;;;;;;;;;5071459;28;20650;-55
2024/03/15 03:34:53;;;;;;;2.28;0.77;;;;;;;;;;5070943;28;20044;-53
2024/03/15 03:37:19;;;;;;;1.90;0.85;;;;;;;;;;5071424;28;20097;-56
2024/03/15 03:39:46;;;;;;;2.30;0.70;;;;;;;;;;5071504;28;20040;-55
2024/03/15 03:42:11;;;;;;;1.45;0.60;;;;;;;;;;5068273;28;20695;-53
2024/03/15 03:44:37;;;;;;;2.03;0.70;;;;;;;;;;5070785;28;20174;-55
2024/03/15 03:47:03;;;;;;;1.65;0.60;;;;;;;;;;5070919;28;20037;-53
2024/03/15 03:49:28;;;;;;;2.15;0.88;;;;;;;;;;5070851;28;20499;-56
2024/03/15 03:51:53;;;;;;;1.83;0.70;;;;;;;;;;5071142;28;20064;-53
2024/03/15 03:54:19;;;;;;;2.35;0.75;;;;;;;;;;5071344;28;20040;-54
2024/03/15 03:56:45;;;;;;;2.33;0.80;;;;;;;;;;5071033;28;20040;-56
2024/03/15 03:59:10;;;;;;;2.08;0.70;;;;;;;;;;5070677;28;20076;-55
2024/03/15 04:01:35;;;;;;;0.75;0.52;;;;;;;;;;5070325;28;20052;-53
2024/03/15 04:04:01;;;;;;;1.23;0.73;;;;;;;;;;5070464;28;20395;-55
2024/03/15 04:06:27;;;;;;;1.48;0.77;;;;;;;;;;5070174;28;20499;-55
2024/03/15 04:08:52;;;;;;;1.70;0.52;;;;;;;;;;5070899;28;20036;-55
2024/03/15 04:11:18;;;;;;;2.38;0.80;;;;;;;;;;5071089;28;20696;-55
2024/03/15 04:13:44;;;;;;;1.85;0.60;;;;;;;;;;5070627;28;20041;-55
2024/03/15 04:16:10;;;;;;;3.08;0.90;;;;;;;;;;5070728;28;20040;-56
2024/03/15 04:18:35;;;;;;;1.55;0.68;;;;;;;;;;5070628;28;20128;-53
2024/03/15 04:21:01;;;;;;;2.40;0.80;;;;;;;;;;5069872;28;20083;-55
2024/03/15 04:23:26;;;;;;;2.88;0.82;;;;;;;;;;5069919;28;20065;-55
2024/03/15 04:25:52;;;;;;;2.22;0.70;;;;;;;;;;5070707;28;20112;-54
2024/03/15 04:28:21;;;;;;;1.77;0.63;;;;;;;;;;5070060;28;20049;-56
2024/03/15 04:30:47;;;;;;;1.65;0.55;;;;;;;;;;5070250;28;20044;-55
2024/03/15 04:33:12;;;;;;;1.27;0.57;;;;;;;;;;5069952;28;20463;-54
2024/03/15 04:35:37;;;;;;;1.42;0.63;;;;;;;;;;5070397;28;20087;-56
2024/03/15 04:38:03;;;;;;;1.55;0.68;;;;;;;;;;5070005;28;20041;-51
2024/03/15 04:40:30;;;;;;;2.80;0.80;;;;;;;;;;5070398;28;20353;-55
2024/03/15 04:42:56;;;;;;;2.05;0.90;;;;;;;;;;5070433;28;20044;-52
2024/03/15 04:45:22;;;;;;;1.02;0.52;;;;;;;;;;5069704;28;20391;-55
2024/03/15 04:47:48;;;;;;;1.65;0.60;;;;;;;;;;5070358;28;20040;-56
2024/03/15 04:50:15;;;;;;;2.38;0.75;;;;;;;;;;5068637;28;20037;-56
2024/03/15 04:52:42;;;;;;;1.77;0.65;;;;;;;;;;5069934;28;20044;-54
2024/03/15 04:55:11;;;;;;;2.70;0.90;;;;;;;;;;5068547;28;20024;-53
2024/03/15 04:57:38;;;;;;;1.85;0.60;;;;;;;;;;5070241;28;20534;-56
2024/03/15 05:00:19;;;;;;;1.17;0.60;;;;;;;;;;5070116;28;20064;-53
2024/03/15 05:02:48;;;;;;;1.80;0.70;;;;;;;;;;5064325;28;20042;-55
2024/03/15 05:05:14;;;;;;;2.13;0.80;;;;;;;;;;5070017;28;20039;-55
2024/03/15 05:07:40;;;;;;;1.55;0.57;;;;;;;;;;5069664;28;20535;-51
2024/03/15 05:10:06;;;;;;;0.95;0.50;;;;;;;;;;5069950;28;20036;-54
2024/03/15 05:12:32;;;;;;;1.30;0.50;;;;;;;;;;5066028;28;20683;-56
2024/03/15 05:14:57;;;;;;;1.50;0.60;;;;;;;;;;5070168;28;20077;-56
2024/03/15 05:17:23;;;;;;;1.80;0.70;;;;;;;;;;5069362;28;20491;-54
2024/03/15 05:19:48;;;;;;;1.25;0.50;;;;;;;;;;5069146;28;20054;-55
2024/03/15 05:22:14;;;;;;;2.25;0.70;;;;;;;;;;5069686;28;20072;-54
2024/03/15 05:24:39;;;;;;;2.17;0.68;;;;;;;;;;5069664;28;20067;-54
2024/03/15 05:27:04;;;;;;;3.90;0.90;;;;;;;;;;5069834;28;20047;-53
2024/03/15 05:29:30;;;;;;;2.65;0.50;;;;;;;;;;5070195;28;20067;-56
2024/03/15 05:31:55;;;;;;;1.85;0.60;;;;;;;;;;5069623;28;20028;-51
2024/03/15 05:34:20;;;;;;;2.65;0.80;;;;;;;;;;5069462;28;20044;-56
2024/03/15 05:36:46;;;;;;;1.90;0.65;;;;;;;;;;5069530;28;20045;-51
2024/03/15 05:39:11;;;;;;;2.80;0.50;;;;;;;;;;5069113;28;20036;-53
2024/03/15 05:41:39;;;;;;;1.52;0.60;;;;;;;;;;5073448;28;20075;-54
2024/03/15 05:44:04;;;;;;;2.42;0.77;;;;;;;;;;5055891;28;20120;-50
2024/03/15 05:46:31;;;;;;;0.93;0.50;;;;;;;;;;5073527;28;20649;-55
2024/03/15 05:48:57;;;;;;;0.80;0.50;;;;;;;;;;5073411;28;20119;-56
2024/03/15 05:51:22;;;;;;;1.40;0.60;;;;;;;;;;5072851;28;20111;-51
2024/03/15 05:53:48;;;;;;;1.35;0.50;;;;;;;;;;5073327;28;20039;-56
2024/03/15 05:56:14;;;;;;;3.35;0.70;;;;;;;;;;5073110;28;20039;-55
2024/03/15 05:58:40;;;;;;;2.33;0.70;;;;;;;;;;5073578;28;20041;-52
2024/03/15 06:01:05;;;;;;;1.73;0.60;;;;;;;;;;5073015;28;20024;-56
2024/03/15 06:03:30;;;;;;;2.38;0.65;;;;;;;;;;5073098;28;20615;-53
2024/03/15 06:05:56;;;;;;;0.80;0.40;;;;;;;;;;5072947;28;20467;-56
2024/03/15 06:08:21;;;;;;;1.50;0.70;;;;;;;;;;5072666;28;20468;-56
2024/03/15 06:10:47;;;;;;;4.00;0.40;;;;;;;;;;5073226;28;20166;-54
2024/03/15 06:13:12;;;;;;;1.02;0.45;;;;;;;;;;5072765;28;20036;-53
2024/03/15 06:15:38;;;;;;;1.08;0.55;;;;;;;;;;5073324;28;20040;-53
2024/03/15 06:18:04;;;;;;;1.60;0.70;;;;;;;;;;5072756;28;20040;-50
2024/03/15 06:20:31;;;;;;;2.03;0.57;;;;;;;;;;5071780;28;20044;-56
2024/03/15 06:22:57;;;;;;;2.75;0.60;;;;;;;;;;5071988;28;20039;-53
2024/03/15 06:25:25;;;;;;;1.63;0.70;;;;;;;;;;5073212;28;20033;-56
2024/03/15 06:27:51;;;;;;;1.67;0.65;;;;;;;;;;5072432;28;20098;-54
2024/03/15 06:30:17;;;;;;;3.67;0.80;;;;;;;;;;5072679;28;20040;-61
2024/03/15 06:32:43;;;;;;;1.88;0.80;;;;;;;;;;5073056;28;20131;-60
2024/03/15 06:35:27;;;;;;;1.48;0.50;;;;;;;;;;5072198;28;20025;-60
2024/03/15 06:38:27;;;;;;;2.42;0.57;;;;;;;;;;5072398;28;20032;-61
2024/03/15 06:40:56;;;;;;;2.00;0.57;;;;;;;;;;5072111;28;20048;-60
2024/03/15 06:46:09;;;;;;;2.33;0.70;;;;;;;;;;5072522;28;20063;-61
2024/03/15 06:48:44;;;;;;;1.40;0.50;;;;;;;;;;5071791;28;20116;-60
2024/03/15 06:53:54;;;;;;;1.20;0.50;;;;;;;;;;5072198;28;20031;-56
2024/03/15 06:56:20;;;;;;;3.55;0.57;;;;;;;;;;5072510;28;20111;-55
2024/03/15 06:58:45;;;;;;;1.33;0.50;;;;;;;;;;5071881;28;20028;-55
2024/03/15 07:01:11;;;;;;;2.97;0.80;;;;;;;;;;5072247;28;20036;-52
2024/03/15 07:03:37;;;;;;;1.73;0.57;;;;;;;;;;5068004;28;20036;-54
2024/03/15 07:06:04;;;;;;;1.50;0.60;;;;;;;;;;5071747;28;20101;-54
2024/03/15 07:08:29;;;;;;;2.05;0.90;;;;;;;;;;5072084;28;20043;-54
2024/03/15 07:10:54;;;;;;;1.95;0.82;;;;;;;;;;5072217;28;20032;-59
2024/03/15 07:13:20;;;;;;;1.75;0.65;;;;;;;;;;5071796;28;20043;-59
2024/03/15 07:15:45;;;;;;;1.95;0.68;;;;;;;;;;5071787;28;20029;-59
2024/03/15 07:18:10;;;;;;;1.95;0.80;;;;;;;;;;5071888;28;20040;-57
2024/03/15 07:20:36;;;;;;;1.45;0.60;;;;;;;;;;5071229;28;20052;-59
2024/03/15 07:23:05;;;;;;;0.88;0.52;;;;;;;;;;5064536;28;20056;-60
2024/03/15 07:25:31;;;;;;;1.60;0.70;;;;;;;;;;5065520;28;20606;-59
2024/03/15 07:27:57;;;;;;;1.25;0.68;;;;;;;;;;5070364;28;20111;-59
2024/03/15 07:30:23;;;;;;;2.25;0.80;;;;;;;;;;5071278;28;20047;-59
2024/03/15 07:32:51;;;;;;;2.85;0.70;;;;;;;;;;5071353;28;20032;-59
2024/03/15 07:35:17;;;;;;;1.90;0.57;;;;;;;;;;5071668;28;20027;-56
2024/03/15 07:37:43;;;;;;;1.65;0.68;;;;;;;;;;5071070;28;20036;-55
2024/03/15 07:40:09;;;;;;;1.27;0.55;;;;;;;;;;5071486;28;20028;-54
2024/03/15 07:42:35;;;;;;;1.58;0.60;;;;;;;;;;5071702;28;20063;-54
2024/03/15 07:45:01;;;;;;;1.33;0.57;;;;;;;;;;5070985;28;20071;-56
2024/03/15 07:47:26;;;;;;;1.52;0.50;;;;;;;;;;5070677;28;20036;-56
2024/03/15 07:49:53;;;;;;;1.90;0.60;;;;;;;;;;5070498;28;20039;-55
2024/03/15 07:52:19;;;;;;;1.02;0.50;;;;;;;;;;5071269;28;20032;-55
2024/03/15 07:54:44;;;;;;;2.75;0.90;;;;;;;;;;5070307;28;20224;-56
2024/03/15 07:57:10;;;;;;;2.30;0.70;;;;;;;;;;5071083;28;20621;-56
2024/03/15 07:59:35;;;;;;;2.00;0.70;;;;;;;;;;5071196;28;20562;-56
2024/03/15 08:02:03;;;;;;;2.90;0.80;;;;;;;;;;5070744;28;20041;-61
2024/03/15 08:04:29;;;;;;;1.70;0.70;;;;;;;;;;5069790;28;20113;-60
2024/03/15 08:06:55;;;;;;;2.60;0.77;;;;;;;;;;5070308;28;19916;-60
2024/03/15 08:09:23;;;;;;;;;;;;;;;;;;5069772;28;20518;-61
2024/03/15 08:11:48;;;;;;;1.88;0.60;;;;;;;;;;5069590;28;20050;-61
2024/03/15 08:14:14;;;;;;;2.05;0.80;;;;;;;;;;5071394;28;20601;-61
2024/03/15 08:16:41;;;;;;;1.10;0.60;;;;;;;;;;5070393;28;20064;-56
2024/03/15 08:19:07;;;;;;;4.60;0.75;;;;;;;;;;5070787;28;20487;-55
2024/03/15 08:21:33;;;;;;;2.65;0.80;;;;;;;;;;5070582;28;20055;-56
2024/03/15 08:24:04;;;;;;;2.50;0.80;;;;;;;;;;5069294;28;20051;-54
2024/03/15 08:26:32;;;;;;;4.10;0.80;;;;;;;;;;5069282;28;20383;-56
2024/03/15 08:28:58;;;;;;;3.63;0.90;;;;;;;;;;5070625;28;19912;-56
2024/03/15 08:31:24;;;;;;;2.10;0.70;;;;;;;;;;5070839;28;20483;-56
2024/03/15 08:33:49;;;;;;;;;;;;;;;;;;5069909;28;20061;-55
2024/03/15 08:36:15;;;;;;;4.20;0.90;;;;;;;;;;5071598;28;20044;-56
2024/03/15 08:38:40;;;;;;;4.68;1.10;;;;;;;;;;5070634;28;20033;-50
2024/03/15 08:41:06;;;;;;;2.60;0.90;;;;;;;;;;5070034;28;20491;-54
2024/03/15 08:43:32;;;;;;;3.95;1.20;;;;;;;;;;5072067;28;20028;-56
2024/03/15 08:45:57;;;;;;;3.00;0.90;;;;;;;;;;5070379;28;20069;-55
2024/03/15 08:48:23;;;;;;;4.20;1.30;;;;;;;;;;5069580;28;20123;-60
2024/03/15 08:50:48;;;;;;;3.60;1.00;;;;;;;;;;5070525;28;19924;-61
2024/03/15 08:53:13;;;;;;;2.73;0.80;;;;;;;;;;5070560;28;19923;-61
2024/03/15 08:55:41;;;;;;;2.53;1.00;;;;;;;;;;5070160;28;20425;-61
2024/03/15 08:58:08;;;;;;;7.85;1.00;;;;;;;;;;5070275;28;20044;-60
2024/03/15 09:00:34;;;;;;;2.72;0.80;;;;;;;;;;5055551;28;20040;-60
2024/03/15 09:02:59;;;;;;;1.83;0.88;;;;;;;;;;5063547;28;20481;-59
2024/03/15 09:05:24;;;;;;;5.60;1.00;;;;;;;;;;5065423;28;20024;-60
2024/03/15 09:07:50;;;;;;;4.28;1.13;;;;;;;;;;5064698;28;20062;-60
2024/03/15 09:10:15;;;;;;;5.45;1.20;;;;;;;;;;5065297;28;20035;-58
2024/03/15 09:12:42;;;;;;;7.85;1.13;;;;;;;;;;5065410;28;20037;-59
2024/03/15 09:15:08;;;;;;;4.00;0.98;;;;;;;;;;5068443;28;20492;-58
2024/03/15 09:17:33;;;;;;;4.33;1.07;;;;;;;;;;5072035;28;20037;-60
2024/03/15 09:19:59;;;;;;;2.35;0.98;;;;;;;;;;5072195;28;20094;-59
2024/03/15 09:22:25;;;;;;;2.97;1.20;;;;;;;;;;5072193;28;20407;-61
2024/03/15 09:24:51;;;;;;;5.22;1.08;;;;;;;;;;5071340;28;20044;-61
2024/03/15 09:27:17;;;;;;;7.53;1.27;;;;;;;;;;5071025;28;20559;-61
2024/03/15 09:29:49;;;;;;;6.82;1.17;;;;;;;;;;5039342;28;20041;-60
2024/03/15 09:32:14;;;;;;;4.05;1.20;;;;;;;;;;5066662;28;20024;-61
2024/03/15 09:34:45;;;;;;;4.45;1.50;;;;;;;;;;5070469;28;20392;-61
2024/03/15 09:37:12;;;;;;;3.05;1.00;;;;;;;;;;5070712;28;19924;-60
2024/03/15 09:39:38;;;;;;;4.93;1.15;;;;;;;;;;5070273;28;20042;-60
2024/03/15 09:42:08;;;;;;;4.67;1.07;;;;;;;;;;5070546;28;20446;-61
2024/03/15 09:44:33;;;;;;;5.50;1.33;;;;;;;;;;5068777;28;20036;-61
2024/03/15 09:46:58;;;;;;;5.13;0.95;;;;;;;;;;5068965;28;20059;-60
2024/03/15 09:49:24;;;;;;;4.35;1.40;;;;;;;;;;5074476;28;20031;-60
2024/03/15 09:51:52;;;;;;;5.18;1.20;;;;;;;;;;5068914;28;20007;-61
2024/03/15 09:54:17;;;;;;;3.22;1.00;;;;;;;;;;5075178;28;20043;-61
2024/03/15 09:56:45;;;;;;;3.20;0.93;;;;;;;;;;5069332;28;20040;-59
2024/03/15 09:59:20;;;;;;;5.28;1.10;;;;;;;;;;5052794;28;20037;-60
2024/03/15 10:01:45;;;;;;;4.20;0.98;;;;;;;;;;5063424;28;20041;-61
2024/03/15 10:04:11;;;;;;;4.65;1.33;;;;;;;;;;5073357;28;20047;-61
2024/03/15 10:06:36;;;;;;;5.68;1.30;;;;;;;;;;5070074;28;20055;-61
2024/03/15 10:09:04;;;;;;;3.17;1.00;;;;;;;;;;5072107;28;20051;-62
2024/03/15 10:11:30;;;;;;;4.93;1.10;;;;;;;;;;5052448;28;20129;-61
2024/03/15 10:13:55;;;;;;;;;;;;;;;;;;5069234;28;20103;-61
2024/03/15 10:16:20;;;;;;;5.28;1.20;;;;;;;;;;5070682;28;20050;-61
2024/03/15 10:18:46;;;;;;;4.88;1.27;;;;;;;;;;5070349;28;20089;-62
2024/03/15 10:21:11;;;;;;;;;;;;;;;;;;5070463;28;20044;-59
2024/03/15 10:23:37;;;;;;;4.22;1.33;;;;;;;;;;5070394;28;20053;-60
2024/03/15 10:26:03;;;;;;;5.15;1.05;;;;;;;;;;5068095;28;20125;-61
2024/03/15 10:28:28;;;;;;;3.15;1.00;;;;;;;;;;5066657;28;20064;-60
2024/03/15 10:30:56;;;;;;;3.90;1.10;;;;;;;;;;5066348;28;20044;-61
2024/03/15 10:33:22;;;;;;;5.97;1.20;;;;;;;;;;5068511;28;20028;-61
2024/03/15 10:35:47;;;;;;;4.68;1.38;;;;;;;;;;5069125;28;20044;-61
2024/03/15 10:38:14;;;;;;;2.50;0.90;;;;;;;;;;5065756;28;20556;-60
2024/03/15 10:40:40;;;;;;;3.13;1.05;;;;;;;;;;5067847;28;20048;-61
2024/03/15 10:43:08;;;;;;;4.88;1.52;;;;;;;;;;5068349;28;20025;-60
2024/03/15 10:45:34;;;;;;;5.85;1.75;;;;;;;;;;5050034;28;20028;-62
2024/03/15 10:47:59;;;;;;;6.75;1.25;;;;;;;;;;5068733;28;20059;-61
2024/03/15 10:50:27;;;;;;;4.63;0.90;;;;;;;;;;5061580;28;20025;-61
2024/03/15 10:52:53;;;;;;;2.85;0.80;;;;;;;;;;5066365;28;20901;-61
2024/03/15 10:55:24;;;;;;;6.38;1.40;;;;;;;;;;5065498;28;20119;-62
2024/03/15 10:57:50;;;;;;;4.30;1.58;;;;;;;;;;5067908;28;20051;-59
2024/03/15 11:00:24;;;;;;;3.95;1.30;;;;;;;;;;5067267;28;20594;-61
2024/03/15 11:02:50;;;;;;;3.08;1.10;;;;;;;;;;5067093;28;20051;-60
2024/03/15 11:05:27;;;;;;;3.97;1.20;;;;;;;;;;5066972;28;20110;-60
2024/03/15 11:08:07;;;;;;;4.28;1.10;;;;;;;;;;5067796;28;20097;-60
2024/03/15 11:10:32;;;;;;;4.68;1.20;;;;;;;;;;5066511;28;20136;-61
2024/03/15 11:13:01;;;;;;;5.28;1.10;;;;;;;;;;5067913;28;20543;-61
2024/03/15 11:15:37;;;;;;;3.47;1.10;;;;;;;;;;5067103;28;20427;-61
2024/03/15 11:18:09;;;;;;;4.25;1.25;;;;;;;;;;5067263;28;20040;-59
2024/03/15 11:20:57;;;;;;;5.50;1.20;;;;;;;;;;5066540;28;20048;-60
2024/03/15 11:23:25;;;;;;;3.92;0.90;;;;;;;;;;5046165;28;20459;-60
2024/03/15 11:25:58;;;;;;;4.10;0.88;;;;;;;;;;5067213;28;20032;-60
2024/03/15 11:28:24;;;;;;;3.00;0.85;;;;;;;;;;5065054;28;20064;-60
2024/03/15 11:30:50;;;;;;;3.42;1.00;;;;;;;;;;5067385;28;20052;-61
2024/03/15 11:33:15;;;;;;;2.92;0.85;;;;;;;;;;5066303;28;20490;-59
2024/03/15 11:35:43;;;;;;;3.55;1.00;;;;;;;;;;5067183;28;20545;-61
2024/03/15 11:38:12;;;;;;;3.30;1.05;;;;;;;;;;5067153;28;20120;-61
2024/03/15 11:40:37;;;;;;;3.63;1.08;;;;;;;;;;5066107;28;20035;-60
2024/03/15 11:43:03;;;;;;;4.50;1.17;;;;;;;;;;5066337;28;20037;-60
2024/03/15 11:45:28;;;;;;;2.47;0.80;;;;;;;;;;5067027;28;20071;-60
2024/03/15 11:47:54;;;;;;;3.88;0.95;;;;;;;;;;5069063;28;20055;-61
2024/03/15 11:50:20;;;;;;;2.25;1.00;;;;;;;;;;5048381;28;20047;-60
2024/03/15 11:53:00;;;;;;;3.70;1.10;;;;;;;;;;5068322;28;20028;-59
2024/03/15 11:55:25;;;;;;;3.58;0.93;;;;;;;;;;5064118;28;20384;-59
2024/03/15 11:57:54;;;;;;;2.83;1.10;;;;;;;;;;5066030;28;20037;-60
2024/03/15 12:00:23;;;;;;;2.33;1.00;;;;;;;;;;5066655;28;20021;-60
2024/03/15 12:02:50;;;;;;;2.60;0.90;;;;;;;;;;5065816;28;20048;-61
2024/03/15 12:05:16;;;;;;;3.35;1.00;;;;;;;;;;5048046;28;20055;-61
2024/03/15 12:07:45;;;;;;;4.28;1.17;;;;;;;;;;5067526;28;20083;-62
2024/03/15 12:10:11;;;;;;;4.63;1.20;;;;;;;;;;5074814;28;20036;-61
2024/03/15 12:12:37;;;;;;;3.28;0.93;;;;;;;;;;5064375;28;20036;-60
2024/03/15 12:15:04;;;;;;;5.05;1.23;;;;;;;;;;5066032;28;20059;-61
2024/03/15 12:17:29;;;;;;;4.10;0.90;;;;;;;;;;5066225;28;20040;-61
2024/03/15 12:19:56;;;;;;;1.95;0.77;;;;;;;;;;5065815;28;20094;-60
2024/03/15 12:22:24;;;;;;;4.93;1.17;;;;;;;;;;5065476;28;20040;-61
2024/03/15 12:24:49;;;;;;;3.30;1.10;;;;;;;;;;5068033;28;20694;-61
2024/03/15 12:27:15;;;;;;;3.33;0.90;;;;;;;;;;5068749;28;20115;-60
2024/03/15 12:29:40;;;;;;;5.00;1.70;;;;;;;;;;5068808;28;20040;-59
2024/03/15 12:32:06;;;;;;;3.55;1.10;;;;;;;;;;5068877;28;20622;-61
2024/03/15 12:34:31;;;;;;;3.05;0.90;;;;;;;;;;5068551;28;20466;-61
2024/03/15 12:36:56;;;;;;;2.78;1.02;;;;;;;;;;5068440;28;20036;-62
2024/03/15 12:39:22;;;;;;;3.30;1.15;;;;;;;;;;5069137;28;20660;-62
2024/03/15 12:41:49;;;;;;;2.78;0.90;;;;;;;;;;5067646;28;20120;-62
2024/03/15 12:44:14;;;;;;;4.22;1.02;;;;;;;;;;5068087;28;20082;-62
2024/03/15 12:46:40;;;;;;;3.13;0.82;;;;;;;;;;5069227;28;20036;-61
2024/03/15 12:49:06;;;;;;;3.22;1.00;;;;;;;;;;5068550;28;20107;-60
2024/03/15 12:51:32;;;;;;;2.85;0.93;;;;;;;;;;5049499;28;20076;-62
2024/03/15 12:53:57;;;;;;;2.83;0.98;;;;;;;;;;5065109;28;20065;-59
2024/03/15 12:56:23;;;;;;;3.55;1.00;;;;;;;;;;5068815;28;20021;-60
2024/03/15 12:58:48;;;;;;;2.70;0.98;;;;;;;;;;5069406;28;20059;-59
2024/03/15 13:01:14;;;;;;;3.67;0.80;;;;;;;;;;5070084;28;20029;-58
2024/03/15 13:03:39;;;;;;;3.17;0.82;;;;;;;;;;5069290;28;20032;-61
2024/03/15 13:06:06;;;;;;;2.15;0.90;;;;;;;;;;5060796;28;20048;-61
2024/03/15 13:08:33;;;;;;;2.67;0.93;;;;;;;;;;5066017;28;20049;-60
2024/03/15 13:10:58;;;;;;;3.30;1.23;;;;;;;;;;5066225;28;20033;-59
2024/03/15 13:13:23;;;;;;;3.72;1.02;;;;;;;;;;5066267;28;20044;-61
2024/03/15 13:15:49;;;;;;;2.47;0.75;;;;;;;;;;5065824;28;20056;-60
2024/03/15 13:18:15;;;;;;;2.15;0.88;;;;;;;;;;5060899;28;20066;-60
2024/03/15 13:20:41;;;;;;;2.33;0.70;;;;;;;;;;5064344;28;20049;-60
2024/03/15 13:23:07;;;;;;;2.72;0.95;;;;;;;;;;5065211;28;20249;-60
2024/03/15 13:25:32;;;;;;;2.38;0.60;;;;;;;;;;5048287;28;20655;-61
2024/03/15 13:27:58;;;;;;;4.97;0.80;;;;;;;;;;5067561;28;20032;-61
2024/03/15 13:30:23;;;;;;;3.33;0.82;;;;;;;;;;5067948;28;20396;-60
2024/03/15 13:32:49;;;;;;;2.50;1.05;;;;;;;;;;5073527;28;20064;-60
2024/03/15 13:35:19;;;;;;;3.42;0.90;;;;;;;;;;5067819;28;20101;-61
2024/03/15 13:37:55;;;;;;;2.97;0.80;;;;;;;;;;5050700;28;20171;-62
2024/03/15 13:40:22;;;;;;;2.55;1.02;;;;;;;;;;5055727;28;20611;-59
2024/03/15 13:42:50;;;;;;;3.13;0.82;;;;;;;;;;5061562;28;20040;-59
2024/03/15 13:45:16;;;;;;;2.75;1.00;;;;;;;;;;5065240;28;20032;-60
2024/03/15 13:47:48;;;;;;;4.38;1.13;;;;;;;;;;5064108;28;20465;-61
2024/03/15 13:50:15;;;;;;;3.90;0.95;;;;;;;;;;5057378;28;20041;-59
2024/03/15 13:52:44;;;;;;;3.83;1.05;;;;;;;;;;5070417;28;20323;-60
2024/03/15 13:55:11;;;;;;;1.65;0.80;;;;;;;;;;5067936;28;20032;-59
2024/03/15 13:57:37;;;;;;;2.90;0.82;;;;;;;;;;5070623;28;20040;-59
2024/03/15 14:00:17;;;;;;;3.83;0.85;;;;;;;;;;5067363;28;20059;-60
2024/03/15 14:02:49;;;;;;;1.92;0.82;;;;;;;;;;5064299;28;20041;-60
2024/03/15 14:05:15;;;;;;;2.83;0.70;;;;;;;;;;5070172;28;20040;-59
2024/03/15 14:07:40;;;;;;;1.65;0.63;;;;;;;;;;5054436;28;20052;-60
2024/03/15 14:10:06;;;;;;;4.72;0.73;;;;;;;;;;5066391;28;20032;-60
2024/03/15 14:12:31;;;;;;;3.33;0.80;;;;;;;;;;5067198;28;20052;-59
2024/03/15 14:14:57;;;;;;;2.40;0.98;;;;;;;;;;5067427;28;20033;-60
2024/03/15 14:17:22;;;;;;;2.40;0.70;;;;;;;;;;5066038;28;20032;-60
2024/03/15 14:19:47;;;;;;;1.85;0.70;;;;;;;;;;5066609;28;20399;-59
2024/03/15 14:22:13;;;;;;;3.72;0.77;;;;;;;;;;5068236;28;20043;-60
2024/03/15 14:24:40;;;;;;;1.65;0.70;;;;;;;;;;5069622;28;20036;-60
2024/03/15 14:27:05;;;;;;;2.08;0.60;;;;;;;;;;5067794;28;20555;-59
2024/03/15 14:29:30;;;;;;;1.70;0.73;;;;;;;;;;5069884;28;20037;-59
2024/03/15 14:31:56;;;;;;;1.95;0.60;;;;;;;;;;5070061;28;20036;-59
2024/03/15 14:34:21;;;;;;;3.17;0.77;;;;;;;;;;5069677;28;20128;-58
2024/03/15 14:36:46;;;;;;;2.25;1.08;;;;;;;;;;5069972;28;20143;-58
2024/03/15 14:39:12;;;;;;;1.77;0.70;;;;;;;;;;5070511;28;20063;-61
2024/03/15 14:41:38;;;;;;;2.42;0.65;;;;;;;;;;5068901;28;20048;-60
2024/03/15 14:44:05;;;;;;;1.25;0.60;;;;;;;;;;5069921;28;20031;-61